Pagina principale
METAR-TAF:

METAR-TAF

Aeroporti :

Aeroporto d'Engadina

Sankt Moritz, Svizzera

latitudine: 46-32-03N, longitudine: 9-53-03E, altezza: 1707 m

Osservazione

Il bollettino è stato emesso 38 minuti fa, alle 19:50 UTC
Vento 2 kt da direzioni variabili
Temperature 11°C
Umidità 71%
Pressione 1025 hPa
Visibilità 10 km o più
nessuna nube inferiore a 1500 m e nessun cumulonembo

METAR: LSZS 161950Z AUTO VRB02KT CAVOK 11/06 Q1025

Ora: 22:28 (20:28 UTC)

Previsione

Il bollettino è stato emesso 6 ore e 3 minuti fa, alle 14:25 UTC
Previsione valida dal 16 alle 15 UTC al 16 alle 24 UTC
Vento 10 kt da nord/nord-ovest
Visibilità 10 km o più
Poco nuvoloso ad un'altezza di 8500 ft
Evoluzione graduale
dal 16 alle 17 UTC al 16 alle 19 UTC
Vento 3 kt da direzioni variabili
Visibilità 10 km o più
nessuna nube inferiore a 1500 m e nessun cumulonembo

TAF: LSZS 161425Z 1615/1624 33010KT 9999 FEW085 TX20/1615Z BECMG 1617/1619 VRB03KT CAVOK

Osservazioni e previsioni meteorologiche di più di 4000 aeroporti (messaggi METAR e TAF).

Le stazioni disponibili sono rappresentate dai dischi gialli e rossi sulla carta.

Puntare il mouse per vedere il nome della stazione.

Clicca sopra per visualizzare le osservazioni e previsioni meteorologiche.

Per cambiare la mappa : fare clic sui pulsanti verdi con una croce nera per ingrandire, il pulsante verde con un trattino per diminuire, o sulla freccia verde per le mappe adiacenti.


METAR-TAF: